sensor_id;sensor_type;location;lat;lon;timestamp;P1;durP1;ratioP1;P2;durP2;ratioP2
61899;SDS011;47853;55.890;37.664;2022-08-11T00:01:09;0.88;;;0.80;;
61899;SDS011;47853;55.890;37.664;2022-08-11T00:03:41;3.28;;;1.00;;
61899;SDS011;47853;55.890;37.664;2022-08-11T00:06:08;1.13;;;1.00;;
61899;SDS011;47853;55.890;37.664;2022-08-11T00:08:35;3.53;;;0.98;;
61899;SDS011;47853;55.890;37.664;2022-08-11T00:11:02;2.25;;;0.90;;
61899;SDS011;47853;55.890;37.664;2022-08-11T00:13:41;3.50;;;1.02;;
61899;SDS011;47853;55.890;37.664;2022-08-11T00:16:19;2.83;;;0.90;;
61899;SDS011;47853;55.890;37.664;2022-08-11T00:18:48;1.38;;;1.00;;
61899;SDS011;47853;55.890;37.664;2022-08-11T00:21:16;0.82;;;0.82;;
61899;SDS011;47853;55.890;37.664;2022-08-11T00:23:45;4.43;;;0.90;;
61899;SDS011;47853;55.890;37.664;2022-08-11T00:26:18;2.67;;;1.15;;
61899;SDS011;47853;55.890;37.664;2022-08-11T00:28:44;2.80;;;0.90;;
61899;SDS011;47853;55.890;37.664;2022-08-11T00:31:10;2.17;;;0.90;;
61899;SDS011;47853;55.890;37.664;2022-08-11T00:33:50;3.40;;;1.20;;
61899;SDS011;47853;55.890;37.664;2022-08-11T00:36:17;3.95;;;1.00;;
61899;SDS011;47853;55.890;37.664;2022-08-11T00:38:44;1.48;;;1.02;;
61899;SDS011;47853;55.890;37.664;2022-08-11T00:46:39;3.08;;;1.17;;
61899;SDS011;47853;55.890;37.664;2022-08-11T01:14:04;4.32;;;1.55;;
61899;SDS011;47853;55.890;37.664;2022-08-11T01:28:33;6.35;;;1.70;;
61899;SDS011;47853;55.890;37.664;2022-08-11T01:42:33;2.38;;;2.17;;
61899;SDS011;47853;55.890;37.664;2022-08-11T01:48:33;1.60;;;1.08;;
61899;SDS011;47853;55.890;37.664;2022-08-11T01:51:14;4.15;;;2.00;;
61899;SDS011;47853;55.890;37.664;2022-08-11T01:59:19;10.93;;;1.73;;
61899;SDS011;47853;55.890;37.664;2022-08-11T02:04:23;1.40;;;1.30;;
61899;SDS011;47853;55.890;37.664;2022-08-11T02:07:09;2.08;;;1.42;;
61899;SDS011;47853;55.890;37.664;2022-08-11T02:12:38;2.05;;;1.75;;
61899;SDS011;47853;55.890;37.664;2022-08-11T02:16:02;1.60;;;1.50;;
61899;SDS011;47853;55.890;37.664;2022-08-11T02:18:12;2.08;;;1.58;;
61899;SDS011;47853;55.890;37.664;2022-08-11T02:20:53;5.97;;;2.00;;
61899;SDS011;47853;55.890;37.664;2022-08-11T02:26:08;3.03;;;2.40;;
61899;SDS011;47853;55.890;37.664;2022-08-11T02:28:47;2.60;;;1.83;;
61899;SDS011;47853;55.890;37.664;2022-08-11T02:34:21;3.17;;;1.90;;
61899;SDS011;47853;55.890;37.664;2022-08-11T02:36:58;5.97;;;2.13;;
61899;SDS011;47853;55.890;37.664;2022-08-11T02:39:37;3.00;;;2.00;;
61899;SDS011;47853;55.890;37.664;2022-08-11T02:42:15;1.70;;;1.60;;
61899;SDS011;47853;55.890;37.664;2022-08-11T02:50:28;2.50;;;1.60;;
61899;SDS011;47853;55.890;37.664;2022-08-11T02:53:00;2.42;;;1.90;;
61899;SDS011;47853;55.890;37.664;2022-08-11T02:55:52;4.78;;;1.67;;
61899;SDS011;47853;55.890;37.664;2022-08-11T02:58:35;8.18;;;1.73;;
61899;SDS011;47853;55.890;37.664;2022-08-11T03:01:19;3.80;;;1.58;;
61899;SDS011;47853;55.890;37.664;2022-08-11T03:04:06;4.53;;;1.55;;
61899;SDS011;47853;55.890;37.664;2022-08-11T03:06:38;5.22;;;1.60;;
61899;SDS011;47853;55.890;37.664;2022-08-11T03:09:28;3.95;;;1.75;;
61899;SDS011;47853;55.890;37.664;2022-08-11T03:12:09;3.28;;;1.90;;
61899;SDS011;47853;55.890;37.664;2022-08-11T03:15:11;2.95;;;2.50;;
61899;SDS011;47853;55.890;37.664;2022-08-11T03:17:48;7.07;;;2.15;;
61899;SDS011;47853;55.890;37.664;2022-08-11T03:25:28;5.68;;;2.25;;
61899;SDS011;47853;55.890;37.664;2022-08-11T03:28:13;5.43;;;2.30;;
61899;SDS011;47853;55.890;37.664;2022-08-11T03:33:43;5.28;;;2.30;;
61899;SDS011;47853;55.890;37.664;2022-08-11T03:36:22;8.48;;;3.00;;
61899;SDS011;47853;55.890;37.664;2022-08-11T03:53:09;6.85;;;2.20;;
61899;SDS011;47853;55.890;37.664;2022-08-11T04:32:30;4.47;;;2.10;;
61899;SDS011;47853;55.890;37.664;2022-08-11T04:40:53;6.03;;;2.63;;
61899;SDS011;47853;55.890;37.664;2022-08-11T04:49:27;6.00;;;2.10;;
61899;SDS011;47853;55.890;37.664;2022-08-11T04:52:36;2.60;;;1.90;;
61899;SDS011;47853;55.890;37.664;2022-08-11T04:58:20;4.95;;;1.90;;
61899;SDS011;47853;55.890;37.664;2022-08-11T05:06:49;5.80;;;1.90;;
61899;SDS011;47853;55.890;37.664;2022-08-11T05:09:37;3.15;;;2.40;;
61899;SDS011;47853;55.890;37.664;2022-08-11T05:12:27;8.15;;;2.45;;
61899;SDS011;47853;55.890;37.664;2022-08-11T05:14:58;7.25;;;2.28;;
61899;SDS011;47853;55.890;37.664;2022-08-11T05:17:41;3.55;;;2.08;;
61899;SDS011;47853;55.890;37.664;2022-08-11T05:20:10;1.95;;;1.67;;
61899;SDS011;47853;55.890;37.664;2022-08-11T05:22:36;3.28;;;2.10;;
61899;SDS011;47853;55.890;37.664;2022-08-11T05:25:13;7.10;;;3.33;;
61899;SDS011;47853;55.890;37.664;2022-08-11T05:27:48;6.70;;;2.08;;
61899;SDS011;47853;55.890;37.664;2022-08-11T05:30:45;6.50;;;2.55;;
61899;SDS011;47853;55.890;37.664;2022-08-11T05:33:29;5.40;;;1.80;;
61899;SDS011;47853;55.890;37.664;2022-08-11T05:36:16;6.35;;;2.00;;
61899;SDS011;47853;55.890;37.664;2022-08-11T05:39:01;2.88;;;1.67;;
61899;SDS011;47853;55.890;37.664;2022-08-11T05:41:29;6.72;;;1.80;;
61899;SDS011;47853;55.890;37.664;2022-08-11T05:44:00;5.55;;;1.85;;
61899;SDS011;47853;55.890;37.664;2022-08-11T05:46:27;4.78;;;1.50;;
61899;SDS011;47853;55.890;37.664;2022-08-11T05:49:06;3.28;;;1.38;;
61899;SDS011;47853;55.890;37.664;2022-08-11T05:51:34;4.25;;;1.30;;
61899;SDS011;47853;55.890;37.664;2022-08-11T05:54:03;2.80;;;1.58;;
61899;SDS011;47853;55.890;37.664;2022-08-11T05:56:32;5.72;;;1.60;;
61899;SDS011;47853;55.890;37.664;2022-08-11T05:58:58;3.92;;;2.05;;
61899;SDS011;47853;55.890;37.664;2022-08-11T06:01:25;3.85;;;1.40;;
61899;SDS011;47853;55.890;37.664;2022-08-11T06:03:53;7.88;;;1.92;;
61899;SDS011;47853;55.890;37.664;2022-08-11T06:06:25;4.15;;;1.77;;
61899;SDS011;47853;55.890;37.664;2022-08-11T06:08:55;4.70;;;1.75;;
61899;SDS011;47853;55.890;37.664;2022-08-11T06:11:23;2.47;;;1.40;;
61899;SDS011;47853;55.890;37.664;2022-08-11T06:13:50;1.85;;;1.20;;
61899;SDS011;47853;55.890;37.664;2022-08-11T06:16:26;2.22;;;1.50;;
61899;SDS011;47853;55.890;37.664;2022-08-11T06:18:52;2.33;;;1.30;;
61899;SDS011;47853;55.890;37.664;2022-08-11T06:21:18;4.40;;;1.30;;
61899;SDS011;47853;55.890;37.664;2022-08-11T06:23:45;1.23;;;1.00;;
61899;SDS011;47853;55.890;37.664;2022-08-11T06:26:12;6.18;;;1.63;;
61899;SDS011;47853;55.890;37.664;2022-08-11T06:28:39;3.50;;;1.50;;
61899;SDS011;47853;55.890;37.664;2022-08-11T06:31:11;3.38;;;1.42;;
61899;SDS011;47853;55.890;37.664;2022-08-11T06:33:37;5.57;;;2.35;;
61899;SDS011;47853;55.890;37.664;2022-08-11T06:36:37;6.85;;;1.90;;
61899;SDS011;47853;55.890;37.664;2022-08-11T06:41:43;8.10;;;1.60;;
61899;SDS011;47853;55.890;37.664;2022-08-11T06:44:38;3.42;;;1.40;;
61899;SDS011;47853;55.890;37.664;2022-08-11T06:47:08;3.90;;;1.50;;
61899;SDS011;47853;55.890;37.664;2022-08-11T06:49:36;4.47;;;1.33;;
61899;SDS011;47853;55.890;37.664;2022-08-11T06:52:10;12.18;;;6.35;;
61899;SDS011;47853;55.890;37.664;2022-08-11T06:54:38;12.27;;;8.55;;
61899;SDS011;47853;55.890;37.664;2022-08-11T06:57:12;3.97;;;1.80;;
61899;SDS011;47853;55.890;37.664;2022-08-11T06:59:38;5.53;;;1.52;;
61899;SDS011;47853;55.890;37.664;2022-08-11T07:02:10;3.45;;;1.70;;
61899;SDS011;47853;55.890;37.664;2022-08-11T07:04:44;8.48;;;1.60;;
61899;SDS011;47853;55.890;37.664;2022-08-11T07:13:02;7.60;;;1.40;;
61899;SDS011;47853;55.890;37.664;2022-08-11T07:15:34;3.25;;;1.60;;
61899;SDS011;47853;55.890;37.664;2022-08-11T07:18:01;4.53;;;1.67;;
61899;SDS011;47853;55.890;37.664;2022-08-11T07:20:30;4.07;;;1.50;;
61899;SDS011;47853;55.890;37.664;2022-08-11T07:22:57;4.65;;;1.50;;
61899;SDS011;47853;55.890;37.664;2022-08-11T07:25:25;6.47;;;1.30;;
61899;SDS011;47853;55.890;37.664;2022-08-11T07:28:03;2.70;;;1.35;;
61899;SDS011;47853;55.890;37.664;2022-08-11T07:30:31;3.72;;;2.15;;
61899;SDS011;47853;55.890;37.664;2022-08-11T07:33:01;6.85;;;6.15;;
61899;SDS011;47853;55.890;37.664;2022-08-11T07:35:35;1.55;;;1.45;;
61899;SDS011;47853;55.890;37.664;2022-08-11T07:38:16;2.95;;;1.30;;
61899;SDS011;47853;55.890;37.664;2022-08-11T07:40:47;3.25;;;1.50;;
61899;SDS011;47853;55.890;37.664;2022-08-11T07:43:12;2.97;;;1.27;;
61899;SDS011;47853;55.890;37.664;2022-08-11T07:45:45;3.60;;;1.35;;
61899;SDS011;47853;55.890;37.664;2022-08-11T07:48:11;2.80;;;1.25;;
61899;SDS011;47853;55.890;37.664;2022-08-11T07:50:39;4.22;;;1.30;;
61899;SDS011;47853;55.890;37.664;2022-08-11T07:53:06;2.92;;;1.52;;
61899;SDS011;47853;55.890;37.664;2022-08-11T07:55:33;7.38;;;2.05;;
61899;SDS011;47853;55.890;37.664;2022-08-11T07:57:59;2.17;;;1.92;;
61899;SDS011;47853;55.890;37.664;2022-08-11T08:00:25;5.13;;;1.70;;
61899;SDS011;47853;55.890;37.664;2022-08-11T08:02:53;9.10;;;1.50;;
61899;SDS011;47853;55.890;37.664;2022-08-11T08:05:19;1.52;;;1.40;;
61899;SDS011;47853;55.890;37.664;2022-08-11T08:07:45;2.50;;;1.30;;
61899;SDS011;47853;55.890;37.664;2022-08-11T08:10:12;2.72;;;1.10;;
61899;SDS011;47853;55.890;37.664;2022-08-11T08:12:38;3.13;;;1.35;;
61899;SDS011;47853;55.890;37.664;2022-08-11T08:15:14;1.35;;;1.00;;
61899;SDS011;47853;55.890;37.664;2022-08-11T08:17:41;3.45;;;1.63;;
61899;SDS011;47853;55.890;37.664;2022-08-11T08:20:09;2.88;;;1.40;;
61899;SDS011;47853;55.890;37.664;2022-08-11T08:22:37;3.88;;;1.50;;
61899;SDS011;47853;55.890;37.664;2022-08-11T08:25:09;2.03;;;1.48;;
61899;SDS011;47853;55.890;37.664;2022-08-11T08:27:35;3.83;;;1.10;;
61899;SDS011;47853;55.890;37.664;2022-08-11T08:30:03;3.78;;;0.90;;
61899;SDS011;47853;55.890;37.664;2022-08-11T08:32:31;0.95;;;0.93;;
61899;SDS011;47853;55.890;37.664;2022-08-11T08:34:58;5.53;;;1.27;;
61899;SDS011;47853;55.890;37.664;2022-08-11T08:37:24;3.15;;;1.35;;
61899;SDS011;47853;55.890;37.664;2022-08-11T08:39:53;1.25;;;1.08;;
61899;SDS011;47853;55.890;37.664;2022-08-11T08:42:26;1.25;;;1.15;;
61899;SDS011;47853;55.890;37.664;2022-08-11T08:45:05;1.58;;;1.30;;
61899;SDS011;47853;55.890;37.664;2022-08-11T08:47:40;4.72;;;4.22;;
61899;SDS011;47853;55.890;37.664;2022-08-11T08:50:09;1.80;;;1.20;;
61899;SDS011;47853;55.890;37.664;2022-08-11T08:52:39;4.65;;;1.48;;
61899;SDS011;47853;55.890;37.664;2022-08-11T08:55:17;1.80;;;1.20;;
61899;SDS011;47853;55.890;37.664;2022-08-11T08:58:06;6.47;;;1.20;;
61899;SDS011;47853;55.890;37.664;2022-08-11T09:00:40;3.83;;;1.38;;
61899;SDS011;47853;55.890;37.664;2022-08-11T09:03:10;3.28;;;1.10;;
61899;SDS011;47853;55.890;37.664;2022-08-11T09:05:41;1.38;;;1.10;;
61899;SDS011;47853;55.890;37.664;2022-08-11T09:08:07;2.35;;;1.60;;
61899;SDS011;47853;55.890;37.664;2022-08-11T09:10:33;3.78;;;2.20;;
61899;SDS011;47853;55.890;37.664;2022-08-11T09:13:07;3.20;;;1.50;;
61899;SDS011;47853;55.890;37.664;2022-08-11T09:18:07;2.60;;;1.30;;
61899;SDS011;47853;55.890;37.664;2022-08-11T09:20:35;2.13;;;1.63;;
61899;SDS011;47853;55.890;37.664;2022-08-11T09:23:38;4.72;;;1.75;;
61899;SDS011;47853;55.890;37.664;2022-08-11T09:32:24;2.22;;;1.45;;
61899;SDS011;47853;55.890;37.664;2022-08-11T09:34:54;4.22;;;3.15;;
61899;SDS011;47853;55.890;37.664;2022-08-11T09:37:23;4.97;;;2.03;;
61899;SDS011;47853;55.890;37.664;2022-08-11T09:39:49;2.35;;;1.30;;
61899;SDS011;47853;55.890;37.664;2022-08-11T09:42:33;2.40;;;1.15;;
61899;SDS011;47853;55.890;37.664;2022-08-11T09:44:59;16.25;;;9.15;;
61899;SDS011;47853;55.890;37.664;2022-08-11T09:47:28;3.03;;;2.72;;
61899;SDS011;47853;55.890;37.664;2022-08-11T09:49:55;2.55;;;1.55;;
61899;SDS011;47853;55.890;37.664;2022-08-11T09:52:24;4.53;;;1.80;;
61899;SDS011;47853;55.890;37.664;2022-08-11T09:54:51;2.45;;;1.50;;
61899;SDS011;47853;55.890;37.664;2022-08-11T09:57:21;5.97;;;1.77;;
61899;SDS011;47853;55.890;37.664;2022-08-11T09:59:47;3.67;;;1.23;;
61899;SDS011;47853;55.890;37.664;2022-08-11T10:02:12;3.47;;;1.60;;
61899;SDS011;47853;55.890;37.664;2022-08-11T10:04:42;3.75;;;1.48;;
61899;SDS011;47853;55.890;37.664;2022-08-11T10:07:10;3.58;;;1.20;;
61899;SDS011;47853;55.890;37.664;2022-08-11T10:12:26;3.10;;;1.80;;
61899;SDS011;47853;55.890;37.664;2022-08-11T10:15:17;2.28;;;1.38;;
61899;SDS011;47853;55.890;37.664;2022-08-11T10:17:46;2.00;;;1.70;;
61899;SDS011;47853;55.890;37.664;2022-08-11T10:20:19;2.38;;;1.83;;
61899;SDS011;47853;55.890;37.664;2022-08-11T10:22:45;3.10;;;1.73;;
61899;SDS011;47853;55.890;37.664;2022-08-11T10:25:11;5.22;;;3.20;;
61899;SDS011;47853;55.890;37.664;2022-08-11T10:27:38;2.75;;;1.70;;
61899;SDS011;47853;55.890;37.664;2022-08-11T10:30:07;5.95;;;2.30;;
61899;SDS011;47853;55.890;37.664;2022-08-11T10:32:33;4.03;;;2.47;;
61899;SDS011;47853;55.890;37.664;2022-08-11T10:35:00;3.03;;;2.55;;
61899;SDS011;47853;55.890;37.664;2022-08-11T10:37:29;6.40;;;4.63;;
61899;SDS011;47853;55.890;37.664;2022-08-11T10:39:55;3.33;;;2.88;;
61899;SDS011;47853;55.890;37.664;2022-08-11T10:42:21;9.48;;;4.32;;
61899;SDS011;47853;55.890;37.664;2022-08-11T10:44:49;6.22;;;5.28;;
61899;SDS011;47853;55.890;37.664;2022-08-11T10:47:17;2.92;;;2.58;;
61899;SDS011;47853;55.890;37.664;2022-08-11T10:49:43;3.30;;;1.60;;
61899;SDS011;47853;55.890;37.664;2022-08-11T10:52:09;4.50;;;1.90;;
61899;SDS011;47853;55.890;37.664;2022-08-11T10:54:34;2.50;;;1.80;;
61899;SDS011;47853;55.890;37.664;2022-08-11T10:57:00;3.30;;;1.40;;
61899;SDS011;47853;55.890;37.664;2022-08-11T10:59:29;2.55;;;1.38;;
61899;SDS011;47853;55.890;37.664;2022-08-11T11:01:58;4.68;;;1.88;;
61899;SDS011;47853;55.890;37.664;2022-08-11T11:07:22;2.60;;;1.10;;
61899;SDS011;47853;55.890;37.664;2022-08-11T11:09:56;4.47;;;2.00;;
61899;SDS011;47853;55.890;37.664;2022-08-11T11:12:43;2.15;;;1.40;;
61899;SDS011;47853;55.890;37.664;2022-08-11T11:15:10;2.85;;;1.77;;
61899;SDS011;47853;55.890;37.664;2022-08-11T11:17:51;12.80;;;11.52;;
61899;SDS011;47853;55.890;37.664;2022-08-11T11:20:22;2.35;;;1.60;;
61899;SDS011;47853;55.890;37.664;2022-08-11T11:22:51;2.67;;;1.23;;
61899;SDS011;47853;55.890;37.664;2022-08-11T11:30:54;4.80;;;1.75;;
61899;SDS011;47853;55.890;37.664;2022-08-11T11:33:27;2.10;;;1.40;;
61899;SDS011;47853;55.890;37.664;2022-08-11T11:38:42;4.22;;;1.65;;
61899;SDS011;47853;55.890;37.664;2022-08-11T11:41:08;3.78;;;1.35;;
61899;SDS011;47853;55.890;37.664;2022-08-11T11:43:34;3.25;;;2.00;;
61899;SDS011;47853;55.890;37.664;2022-08-11T11:46:01;4.45;;;1.70;;
61899;SDS011;47853;55.890;37.664;2022-08-11T11:48:30;4.93;;;1.63;;
61899;SDS011;47853;55.890;37.664;2022-08-11T11:50:56;6.75;;;1.70;;
61899;SDS011;47853;55.890;37.664;2022-08-11T11:53:23;7.20;;;1.70;;
61899;SDS011;47853;55.890;37.664;2022-08-11T11:55:49;4.18;;;1.70;;
61899;SDS011;47853;55.890;37.664;2022-08-11T11:58:15;1.55;;;1.45;;
61899;SDS011;47853;55.890;37.664;2022-08-11T12:00:44;2.47;;;1.45;;
61899;SDS011;47853;55.890;37.664;2022-08-11T12:03:11;3.15;;;1.17;;
61899;SDS011;47853;55.890;37.664;2022-08-11T12:05:37;4.03;;;1.70;;
61899;SDS011;47853;55.890;37.664;2022-08-11T12:08:03;7.85;;;2.40;;
61899;SDS011;47853;55.890;37.664;2022-08-11T12:10:30;1.55;;;1.40;;
61899;SDS011;47853;55.890;37.664;2022-08-11T12:12:58;2.58;;;1.67;;
61899;SDS011;47853;55.890;37.664;2022-08-11T12:15:26;4.68;;;1.90;;
61899;SDS011;47853;55.890;37.664;2022-08-11T12:17:51;3.28;;;1.63;;
61899;SDS011;47853;55.890;37.664;2022-08-11T12:20:17;4.55;;;1.80;;
61899;SDS011;47853;55.890;37.664;2022-08-11T12:22:43;2.45;;;1.50;;
61899;SDS011;47853;55.890;37.664;2022-08-11T12:25:09;9.80;;;1.58;;
61899;SDS011;47853;55.890;37.664;2022-08-11T12:27:34;4.50;;;1.50;;
61899;SDS011;47853;55.890;37.664;2022-08-11T12:30:00;1.63;;;1.40;;
61899;SDS011;47853;55.890;37.664;2022-08-11T12:32:30;3.95;;;1.33;;
61899;SDS011;47853;55.890;37.664;2022-08-11T12:34:56;2.08;;;1.33;;
61899;SDS011;47853;55.890;37.664;2022-08-11T12:37:25;1.17;;;1.00;;
61899;SDS011;47853;55.890;37.664;2022-08-11T12:40:00;3.25;;;1.20;;
61899;SDS011;47853;55.890;37.664;2022-08-11T12:42:30;2.63;;;1.30;;
61899;SDS011;47853;55.890;37.664;2022-08-11T12:44:58;1.77;;;1.25;;
61899;SDS011;47853;55.890;37.664;2022-08-11T12:47:24;2.97;;;1.30;;
61899;SDS011;47853;55.890;37.664;2022-08-11T12:49:50;3.70;;;1.40;;
61899;SDS011;47853;55.890;37.664;2022-08-11T12:52:21;4.45;;;2.67;;
61899;SDS011;47853;55.890;37.664;2022-08-11T12:57:29;6.18;;;1.70;;
61899;SDS011;47853;55.890;37.664;2022-08-11T13:00:22;2.55;;;1.83;;
61899;SDS011;47853;55.890;37.664;2022-08-11T13:02:54;1.98;;;1.30;;
61899;SDS011;47853;55.890;37.664;2022-08-11T13:05:20;3.03;;;1.48;;
61899;SDS011;47853;55.890;37.664;2022-08-11T13:07:46;9.60;;;1.50;;
61899;SDS011;47853;55.890;37.664;2022-08-11T13:10:13;2.70;;;1.50;;
61899;SDS011;47853;55.890;37.664;2022-08-11T13:12:41;3.38;;;1.60;;
61899;SDS011;47853;55.890;37.664;2022-08-11T13:15:07;2.65;;;1.77;;
61899;SDS011;47853;55.890;37.664;2022-08-11T13:17:38;3.28;;;1.80;;
61899;SDS011;47853;55.890;37.664;2022-08-11T13:20:05;4.78;;;2.05;;
61899;SDS011;47853;55.890;37.664;2022-08-11T13:22:34;1.35;;;1.20;;
61899;SDS011;47853;55.890;37.664;2022-08-11T13:25:02;4.20;;;1.40;;
61899;SDS011;47853;55.890;37.664;2022-08-11T13:27:28;9.10;;;1.70;;
61899;SDS011;47853;55.890;37.664;2022-08-11T13:29:54;3.08;;;1.90;;
61899;SDS011;47853;55.890;37.664;2022-08-11T13:32:21;3.30;;;3.00;;
61899;SDS011;47853;55.890;37.664;2022-08-11T13:34:47;4.43;;;2.58;;
61899;SDS011;47853;55.890;37.664;2022-08-11T13:37:13;1.30;;;1.20;;
61899;SDS011;47853;55.890;37.664;2022-08-11T13:39:43;6.38;;;5.72;;
61899;SDS011;47853;55.890;37.664;2022-08-11T13:42:12;3.05;;;1.33;;
61899;SDS011;47853;55.890;37.664;2022-08-11T13:44:39;2.88;;;1.30;;
61899;SDS011;47853;55.890;37.664;2022-08-11T13:47:06;2.28;;;1.90;;
61899;SDS011;47853;55.890;37.664;2022-08-11T13:49:35;4.38;;;2.00;;
61899;SDS011;47853;55.890;37.664;2022-08-11T13:52:02;1.98;;;1.45;;
61899;SDS011;47853;55.890;37.664;2022-08-11T13:54:30;5.32;;;1.90;;
61899;SDS011;47853;55.890;37.664;2022-08-11T13:57:08;5.35;;;1.80;;
61899;SDS011;47853;55.890;37.664;2022-08-11T13:59:35;1.92;;;1.50;;
61899;SDS011;47853;55.890;37.664;2022-08-11T14:02:02;2.88;;;1.95;;
61899;SDS011;47853;55.890;37.664;2022-08-11T14:04:40;2.80;;;1.63;;
61899;SDS011;47853;55.890;37.664;2022-08-11T14:07:11;5.85;;;1.50;;
61899;SDS011;47853;55.890;37.664;2022-08-11T14:09:43;10.82;;;6.60;;
61899;SDS011;47853;55.890;37.664;2022-08-11T14:12:25;5.00;;;2.92;;
61899;SDS011;47853;55.890;37.664;2022-08-11T14:14:58;1.88;;;1.35;;
61899;SDS011;47853;55.890;37.664;2022-08-11T14:17:29;4.82;;;2.58;;
61899;SDS011;47853;55.890;37.664;2022-08-11T14:19:57;4.25;;;2.30;;
61899;SDS011;47853;55.890;37.664;2022-08-11T14:22:29;2.28;;;2.08;;
61899;SDS011;47853;55.890;37.664;2022-08-11T14:24:56;4.28;;;1.55;;
61899;SDS011;47853;55.890;37.664;2022-08-11T14:27:22;5.32;;;1.77;;
61899;SDS011;47853;55.890;37.664;2022-08-11T14:29:48;5.78;;;1.75;;
61899;SDS011;47853;55.890;37.664;2022-08-11T14:32:14;3.08;;;1.90;;
61899;SDS011;47853;55.890;37.664;2022-08-11T14:34:40;7.50;;;2.00;;
61899;SDS011;47853;55.890;37.664;2022-08-11T14:40:23;5.03;;;2.65;;
61899;SDS011;47853;55.890;37.664;2022-08-11T14:42:49;9.00;;;1.98;;
61899;SDS011;47853;55.890;37.664;2022-08-11T14:45:18;6.82;;;1.65;;
61899;SDS011;47853;55.890;37.664;2022-08-11T14:47:46;4.40;;;1.77;;
61899;SDS011;47853;55.890;37.664;2022-08-11T14:50:23;5.88;;;1.70;;
61899;SDS011;47853;55.890;37.664;2022-08-11T14:52:51;2.92;;;1.77;;
61899;SDS011;47853;55.890;37.664;2022-08-11T14:55:26;6.47;;;2.25;;
61899;SDS011;47853;55.890;37.664;2022-08-11T14:57:53;2.97;;;1.58;;
61899;SDS011;47853;55.890;37.664;2022-08-11T15:00:23;11.52;;;7.00;;
61899;SDS011;47853;55.890;37.664;2022-08-11T15:02:49;4.60;;;1.50;;
61899;SDS011;47853;55.890;37.664;2022-08-11T15:05:15;4.00;;;1.60;;
61899;SDS011;47853;55.890;37.664;2022-08-11T15:07:43;3.08;;;1.40;;
61899;SDS011;47853;55.890;37.664;2022-08-11T15:10:10;1.52;;;1.35;;
61899;SDS011;47853;55.890;37.664;2022-08-11T15:12:36;4.72;;;1.88;;
61899;SDS011;47853;55.890;37.664;2022-08-11T15:15:05;7.25;;;1.90;;
61899;SDS011;47853;55.890;37.664;2022-08-11T15:17:32;4.38;;;2.03;;
61899;SDS011;47853;55.890;37.664;2022-08-11T15:20:03;7.60;;;1.88;;
61899;SDS011;47853;55.890;37.664;2022-08-11T15:22:32;6.72;;;2.05;;
61899;SDS011;47853;55.890;37.664;2022-08-11T15:24:58;7.38;;;4.88;;
61899;SDS011;47853;55.890;37.664;2022-08-11T15:27:23;3.20;;;2.90;;
61899;SDS011;47853;55.890;37.664;2022-08-11T15:29:50;9.73;;;2.72;;
61899;SDS011;47853;55.890;37.664;2022-08-11T15:32:17;2.90;;;1.77;;
61899;SDS011;47853;55.890;37.664;2022-08-11T15:40:53;5.38;;;2.85;;
61899;SDS011;47853;55.890;37.664;2022-08-11T15:43:25;8.57;;;2.60;;
61899;SDS011;47853;55.890;37.664;2022-08-11T15:46:00;2.53;;;2.33;;
61899;SDS011;47853;55.890;37.664;2022-08-11T15:59:19;38.17;;;32.92;;
61899;SDS011;47853;55.890;37.664;2022-08-11T16:01:49;34.13;;;30.50;;
61899;SDS011;47853;55.890;37.664;2022-08-11T16:04:18;10.13;;;5.22;;
61899;SDS011;47853;55.890;37.664;2022-08-11T16:09:55;6.35;;;3.70;;
61899;SDS011;47853;55.890;37.664;2022-08-11T16:13:09;6.90;;;2.20;;
61899;SDS011;47853;55.890;37.664;2022-08-11T16:15:24;8.95;;;2.50;;
61899;SDS011;47853;55.890;37.664;2022-08-11T16:17:51;8.23;;;3.25;;
61899;SDS011;47853;55.890;37.664;2022-08-11T16:20:22;9.68;;;2.20;;
61899;SDS011;47853;55.890;37.664;2022-08-11T16:23:01;6.90;;;3.10;;
61899;SDS011;47853;55.890;37.664;2022-08-11T16:25:37;12.20;;;3.47;;
61899;SDS011;47853;55.890;37.664;2022-08-11T16:28:03;11.80;;;5.47;;
61899;SDS011;47853;55.890;37.664;2022-08-11T16:30:34;11.40;;;3.95;;
61899;SDS011;47853;55.890;37.664;2022-08-11T16:33:04;12.25;;;5.05;;
61899;SDS011;47853;55.890;37.664;2022-08-11T16:35:32;16.02;;;3.22;;
61899;SDS011;47853;55.890;37.664;2022-08-11T16:38:00;13.80;;;7.18;;
61899;SDS011;47853;55.890;37.664;2022-08-11T16:40:27;6.88;;;2.70;;
61899;SDS011;47853;55.890;37.664;2022-08-11T16:42:55;11.38;;;2.70;;
61899;SDS011;47853;55.890;37.664;2022-08-11T16:45:22;22.38;;;19.00;;
61899;SDS011;47853;55.890;37.664;2022-08-11T16:47:51;36.28;;;28.80;;
61899;SDS011;47853;55.890;37.664;2022-08-11T16:50:16;15.68;;;3.08;;
61899;SDS011;47853;55.890;37.664;2022-08-11T16:52:42;8.45;;;3.50;;
61899;SDS011;47853;55.890;37.664;2022-08-11T16:55:08;6.70;;;2.92;;
61899;SDS011;47853;55.890;37.664;2022-08-11T16:57:33;8.75;;;2.67;;
61899;SDS011;47853;55.890;37.664;2022-08-11T17:00:03;4.72;;;2.30;;
61899;SDS011;47853;55.890;37.664;2022-08-11T17:02:33;12.07;;;2.90;;
61899;SDS011;47853;55.890;37.664;2022-08-11T17:05:02;4.65;;;2.80;;
61899;SDS011;47853;55.890;37.664;2022-08-11T17:07:33;5.15;;;2.90;;
61899;SDS011;47853;55.890;37.664;2022-08-11T17:10:05;16.15;;;2.75;;
61899;SDS011;47853;55.890;37.664;2022-08-11T17:12:35;11.23;;;2.97;;
61899;SDS011;47853;55.890;37.664;2022-08-11T17:15:05;15.20;;;3.72;;
61899;SDS011;47853;55.890;37.664;2022-08-11T17:17:35;11.98;;;3.38;;
61899;SDS011;47853;55.890;37.664;2022-08-11T17:20:04;14.35;;;3.78;;
61899;SDS011;47853;55.890;37.664;2022-08-11T17:22:32;12.23;;;4.35;;
61899;SDS011;47853;55.890;37.664;2022-08-11T17:25:02;12.75;;;4.75;;
61899;SDS011;47853;55.890;37.664;2022-08-11T17:27:29;17.40;;;4.13;;
61899;SDS011;47853;55.890;37.664;2022-08-11T17:29:58;16.58;;;4.50;;
61899;SDS011;47853;55.890;37.664;2022-08-11T17:34:58;11.30;;;4.60;;
61899;SDS011;47853;55.890;37.664;2022-08-11T17:37:27;9.25;;;5.13;;
61899;SDS011;47853;55.890;37.664;2022-08-11T17:39:53;17.08;;;5.53;;
61899;SDS011;47853;55.890;37.664;2022-08-11T17:42:20;16.33;;;5.78;;
61899;SDS011;47853;55.890;37.664;2022-08-11T17:44:48;10.63;;;5.20;;
61899;SDS011;47853;55.890;37.664;2022-08-11T17:47:15;8.63;;;4.70;;
61899;SDS011;47853;55.890;37.664;2022-08-11T17:49:42;19.00;;;5.47;;
61899;SDS011;47853;55.890;37.664;2022-08-11T17:52:08;16.23;;;5.07;;
61899;SDS011;47853;55.890;37.664;2022-08-11T17:54:35;13.32;;;6.18;;
61899;SDS011;47853;55.890;37.664;2022-08-11T17:57:02;12.05;;;5.78;;
61899;SDS011;47853;55.890;37.664;2022-08-11T17:59:28;9.43;;;4.63;;
61899;SDS011;47853;55.890;37.664;2022-08-11T18:01:54;8.70;;;4.70;;
61899;SDS011;47853;55.890;37.664;2022-08-11T18:04:23;11.38;;;5.05;;
61899;SDS011;47853;55.890;37.664;2022-08-11T18:06:52;11.90;;;4.50;;
61899;SDS011;47853;55.890;37.664;2022-08-11T18:09:19;12.73;;;5.30;;
61899;SDS011;47853;55.890;37.664;2022-08-11T18:11:46;11.57;;;4.60;;
61899;SDS011;47853;55.890;37.664;2022-08-11T18:14:13;8.85;;;5.40;;
61899;SDS011;47853;55.890;37.664;2022-08-11T18:16:39;12.68;;;4.50;;
61899;SDS011;47853;55.890;37.664;2022-08-11T18:19:05;13.05;;;5.10;;
61899;SDS011;47853;55.890;37.664;2022-08-11T18:21:31;19.98;;;8.05;;
61899;SDS011;47853;55.890;37.664;2022-08-11T18:24:09;25.70;;;11.23;;
61899;SDS011;47853;55.890;37.664;2022-08-11T18:26:37;31.90;;;12.07;;
61899;SDS011;47853;55.890;37.664;2022-08-11T18:29:07;25.05;;;12.38;;
61899;SDS011;47853;55.890;37.664;2022-08-11T18:31:36;28.20;;;14.15;;
61899;SDS011;47853;55.890;37.664;2022-08-11T18:34:06;25.70;;;13.80;;